sensor_id;sensor_type;location;lat;lon;timestamp;P1;durP1;ratioP1;P2;durP2;ratioP2
20154;SDS011;10238;49.556;10.956;2023-10-09T00:01:37;8.18;;;7.25;;
20154;SDS011;10238;49.556;10.956;2023-10-09T00:04:30;7.38;;;6.68;;
20154;SDS011;10238;49.556;10.956;2023-10-09T00:07:18;8.45;;;7.25;;
20154;SDS011;10238;49.556;10.956;2023-10-09T00:10:09;7.28;;;6.10;;
20154;SDS011;10238;49.556;10.956;2023-10-09T00:12:58;9.80;;;5.63;;
20154;SDS011;10238;49.556;10.956;2023-10-09T00:15:45;7.05;;;5.60;;
20154;SDS011;10238;49.556;10.956;2023-10-09T00:18:38;7.43;;;5.80;;
20154;SDS011;10238;49.556;10.956;2023-10-09T00:21:33;5.32;;;4.82;;
20154;SDS011;10238;49.556;10.956;2023-10-09T00:24:24;6.90;;;5.47;;
20154;SDS011;10238;49.556;10.956;2023-10-09T00:27:14;8.07;;;5.20;;
20154;SDS011;10238;49.556;10.956;2023-10-09T00:30:05;6.53;;;5.50;;
20154;SDS011;10238;49.556;10.956;2023-10-09T00:32:55;8.80;;;5.20;;
20154;SDS011;10238;49.556;10.956;2023-10-09T00:35:47;6.82;;;5.60;;
20154;SDS011;10238;49.556;10.956;2023-10-09T00:38:41;7.50;;;5.82;;
20154;SDS011;10238;49.556;10.956;2023-10-09T00:41:32;9.32;;;5.85;;
20154;SDS011;10238;49.556;10.956;2023-10-09T00:44:21;7.15;;;5.18;;
20154;SDS011;10238;49.556;10.956;2023-10-09T00:47:11;8.85;;;5.53;;
20154;SDS011;10238;49.556;10.956;2023-10-09T00:50:08;6.78;;;4.90;;
20154;SDS011;10238;49.556;10.956;2023-10-09T00:53:07;10.32;;;5.80;;
20154;SDS011;10238;49.556;10.956;2023-10-09T00:56:02;8.07;;;5.05;;
20154;SDS011;10238;49.556;10.956;2023-10-09T00:59:04;8.10;;;5.75;;
20154;SDS011;10238;49.556;10.956;2023-10-09T01:02:00;7.63;;;6.03;;
20154;SDS011;10238;49.556;10.956;2023-10-09T01:04:52;9.05;;;5.15;;
20154;SDS011;10238;49.556;10.956;2023-10-09T01:07:41;9.75;;;6.45;;
20154;SDS011;10238;49.556;10.956;2023-10-09T01:10:40;8.80;;;5.80;;
20154;SDS011;10238;49.556;10.956;2023-10-09T01:13:38;8.55;;;5.45;;
20154;SDS011;10238;49.556;10.956;2023-10-09T01:16:39;8.98;;;5.78;;
20154;SDS011;10238;49.556;10.956;2023-10-09T01:19:28;10.75;;;5.80;;
20154;SDS011;10238;49.556;10.956;2023-10-09T01:22:19;8.95;;;5.63;;
20154;SDS011;10238;49.556;10.956;2023-10-09T01:25:09;8.93;;;5.75;;
20154;SDS011;10238;49.556;10.956;2023-10-09T01:27:57;11.35;;;7.03;;
20154;SDS011;10238;49.556;10.956;2023-10-09T01:30:45;8.52;;;5.57;;
20154;SDS011;10238;49.556;10.956;2023-10-09T01:33:33;12.93;;;6.18;;
20154;SDS011;10238;49.556;10.956;2023-10-09T01:36:22;8.60;;;5.55;;
20154;SDS011;10238;49.556;10.956;2023-10-09T01:39:17;11.60;;;6.82;;
20154;SDS011;10238;49.556;10.956;2023-10-09T01:42:11;6.03;;;4.63;;
20154;SDS011;10238;49.556;10.956;2023-10-09T01:45:09;8.57;;;6.47;;
20154;SDS011;10238;49.556;10.956;2023-10-09T01:48:13;10.27;;;6.55;;
20154;SDS011;10238;49.556;10.956;2023-10-09T01:51:12;13.55;;;6.72;;
20154;SDS011;10238;49.556;10.956;2023-10-09T01:54:04;9.50;;;5.47;;
20154;SDS011;10238;49.556;10.956;2023-10-09T01:56:51;11.77;;;7.07;;
20154;SDS011;10238;49.556;10.956;2023-10-09T01:59:43;10.35;;;5.95;;
20154;SDS011;10238;49.556;10.956;2023-10-09T02:02:34;12.45;;;6.28;;
20154;SDS011;10238;49.556;10.956;2023-10-09T02:05:22;10.27;;;6.63;;
20154;SDS011;10238;49.556;10.956;2023-10-09T02:08:13;8.57;;;6.25;;
20154;SDS011;10238;49.556;10.956;2023-10-09T02:11:07;8.13;;;5.38;;
20154;SDS011;10238;49.556;10.956;2023-10-09T02:14:00;7.10;;;5.45;;
20154;SDS011;10238;49.556;10.956;2023-10-09T02:16:52;8.48;;;5.85;;
20154;SDS011;10238;49.556;10.956;2023-10-09T02:19:49;7.65;;;5.18;;
20154;SDS011;10238;49.556;10.956;2023-10-09T02:22:37;9.35;;;6.50;;
20154;SDS011;10238;49.556;10.956;2023-10-09T02:25:26;9.07;;;5.93;;
20154;SDS011;10238;49.556;10.956;2023-10-09T02:28:19;8.25;;;5.95;;
20154;SDS011;10238;49.556;10.956;2023-10-09T02:31:10;9.88;;;5.78;;
20154;SDS011;10238;49.556;10.956;2023-10-09T02:34:00;6.93;;;5.20;;
20154;SDS011;10238;49.556;10.956;2023-10-09T02:36:51;10.07;;;5.72;;
20154;SDS011;10238;49.556;10.956;2023-10-09T02:39:43;9.50;;;5.75;;
20154;SDS011;10238;49.556;10.956;2023-10-09T02:42:34;9.55;;;6.28;;
20154;SDS011;10238;49.556;10.956;2023-10-09T02:45:22;9.30;;;5.38;;
20154;SDS011;10238;49.556;10.956;2023-10-09T02:48:14;7.28;;;5.80;;
20154;SDS011;10238;49.556;10.956;2023-10-09T02:51:06;9.32;;;6.63;;
20154;SDS011;10238;49.556;10.956;2023-10-09T02:54:01;9.38;;;5.88;;
20154;SDS011;10238;49.556;10.956;2023-10-09T02:57:12;10.23;;;5.80;;
20154;SDS011;10238;49.556;10.956;2023-10-09T03:00:08;8.65;;;5.95;;
20154;SDS011;10238;49.556;10.956;2023-10-09T03:03:05;7.38;;;5.95;;
20154;SDS011;10238;49.556;10.956;2023-10-09T03:05:53;10.10;;;6.45;;
20154;SDS011;10238;49.556;10.956;2023-10-09T03:08:42;8.85;;;6.68;;
20154;SDS011;10238;49.556;10.956;2023-10-09T03:11:32;6.57;;;5.82;;
20154;SDS011;10238;49.556;10.956;2023-10-09T03:14:21;8.95;;;5.97;;
20154;SDS011;10238;49.556;10.956;2023-10-09T03:17:12;14.93;;;6.63;;
20154;SDS011;10238;49.556;10.956;2023-10-09T03:20:01;8.23;;;5.57;;
20154;SDS011;10238;49.556;10.956;2023-10-09T03:23:01;8.27;;;6.70;;
20154;SDS011;10238;49.556;10.956;2023-10-09T03:25:51;9.63;;;6.32;;
20154;SDS011;10238;49.556;10.956;2023-10-09T03:28:49;6.78;;;5.57;;
20154;SDS011;10238;49.556;10.956;2023-10-09T03:31:37;8.90;;;6.50;;
20154;SDS011;10238;49.556;10.956;2023-10-09T03:34:28;10.27;;;6.60;;
20154;SDS011;10238;49.556;10.956;2023-10-09T03:37:17;9.95;;;6.05;;
20154;SDS011;10238;49.556;10.956;2023-10-09T03:40:08;9.55;;;6.28;;
20154;SDS011;10238;49.556;10.956;2023-10-09T03:43:04;9.02;;;5.97;;
20154;SDS011;10238;49.556;10.956;2023-10-09T03:45:52;9.77;;;6.85;;
20154;SDS011;10238;49.556;10.956;2023-10-09T03:48:40;9.93;;;6.18;;
20154;SDS011;10238;49.556;10.956;2023-10-09T03:51:31;9.40;;;5.68;;
20154;SDS011;10238;49.556;10.956;2023-10-09T03:54:20;8.55;;;5.90;;
20154;SDS011;10238;49.556;10.956;2023-10-09T03:57:10;9.65;;;6.22;;
20154;SDS011;10238;49.556;10.956;2023-10-09T04:00:01;9.73;;;6.35;;
20154;SDS011;10238;49.556;10.956;2023-10-09T04:02:57;11.27;;;6.35;;
20154;SDS011;10238;49.556;10.956;2023-10-09T04:05:46;9.88;;;6.20;;
20154;SDS011;10238;49.556;10.956;2023-10-09T04:08:37;11.20;;;6.93;;
20154;SDS011;10238;49.556;10.956;2023-10-09T04:11:32;8.60;;;6.07;;
20154;SDS011;10238;49.556;10.956;2023-10-09T04:14:22;9.63;;;5.80;;
20154;SDS011;10238;49.556;10.956;2023-10-09T04:17:13;8.57;;;5.70;;
20154;SDS011;10238;49.556;10.956;2023-10-09T04:20:15;11.13;;;5.97;;
20154;SDS011;10238;49.556;10.956;2023-10-09T04:23:32;7.50;;;5.57;;
20154;SDS011;10238;49.556;10.956;2023-10-09T04:26:43;8.77;;;6.40;;
20154;SDS011;10238;49.556;10.956;2023-10-09T04:29:31;7.07;;;5.32;;
20154;SDS011;10238;49.556;10.956;2023-10-09T04:32:26;7.13;;;5.40;;
20154;SDS011;10238;49.556;10.956;2023-10-09T04:35:14;8.20;;;6.22;;
20154;SDS011;10238;49.556;10.956;2023-10-09T04:38:09;9.90;;;7.07;;
20154;SDS011;10238;49.556;10.956;2023-10-09T04:40:57;10.73;;;7.40;;
20154;SDS011;10238;49.556;10.956;2023-10-09T04:43:45;12.38;;;7.43;;
20154;SDS011;10238;49.556;10.956;2023-10-09T04:46:32;15.88;;;7.63;;
20154;SDS011;10238;49.556;10.956;2023-10-09T04:49:31;11.80;;;7.50;;
20154;SDS011;10238;49.556;10.956;2023-10-09T04:52:31;12.93;;;7.88;;
20154;SDS011;10238;49.556;10.956;2023-10-09T04:55:37;9.98;;;7.78;;
20154;SDS011;10238;49.556;10.956;2023-10-09T04:58:25;12.48;;;7.70;;
20154;SDS011;10238;49.556;10.956;2023-10-09T05:01:12;10.10;;;7.47;;
20154;SDS011;10238;49.556;10.956;2023-10-09T05:04:02;10.98;;;7.75;;
20154;SDS011;10238;49.556;10.956;2023-10-09T05:07:07;16.08;;;8.00;;
20154;SDS011;10238;49.556;10.956;2023-10-09T05:10:10;13.02;;;8.40;;
20154;SDS011;10238;49.556;10.956;2023-10-09T05:13:01;10.57;;;7.47;;
20154;SDS011;10238;49.556;10.956;2023-10-09T05:15:57;12.20;;;8.45;;
20154;SDS011;10238;49.556;10.956;2023-10-09T05:18:44;13.00;;;8.10;;
20154;SDS011;10238;49.556;10.956;2023-10-09T05:21:42;12.80;;;8.20;;
20154;SDS011;10238;49.556;10.956;2023-10-09T05:24:34;10.57;;;6.97;;
20154;SDS011;10238;49.556;10.956;2023-10-09T05:27:32;11.05;;;7.82;;
20154;SDS011;10238;49.556;10.956;2023-10-09T05:30:31;10.98;;;7.05;;
20154;SDS011;10238;49.556;10.956;2023-10-09T05:33:26;11.13;;;6.63;;
20154;SDS011;10238;49.556;10.956;2023-10-09T05:36:19;12.20;;;7.25;;
20154;SDS011;10238;49.556;10.956;2023-10-09T05:39:21;8.95;;;6.40;;
20154;SDS011;10238;49.556;10.956;2023-10-09T05:42:28;11.20;;;6.85;;
20154;SDS011;10238;49.556;10.956;2023-10-09T05:45:30;7.95;;;6.30;;
20154;SDS011;10238;49.556;10.956;2023-10-09T05:48:47;10.27;;;6.32;;
20154;SDS011;10238;49.556;10.956;2023-10-09T05:51:54;10.38;;;6.00;;
20154;SDS011;10238;49.556;10.956;2023-10-09T05:55:01;8.43;;;6.05;;
20154;SDS011;10238;49.556;10.956;2023-10-09T05:58:23;9.75;;;5.47;;
20154;SDS011;10238;49.556;10.956;2023-10-09T06:01:28;12.43;;;6.68;;
20154;SDS011;10238;49.556;10.956;2023-10-09T06:04:33;8.15;;;5.85;;
20154;SDS011;10238;49.556;10.956;2023-10-09T06:07:35;9.80;;;5.85;;
20154;SDS011;10238;49.556;10.956;2023-10-09T06:10:47;10.73;;;6.88;;
20154;SDS011;10238;49.556;10.956;2023-10-09T06:13:36;14.52;;;7.63;;
20154;SDS011;10238;49.556;10.956;2023-10-09T06:16:31;9.13;;;6.85;;
20154;SDS011;10238;49.556;10.956;2023-10-09T06:19:27;9.07;;;6.60;;
20154;SDS011;10238;49.556;10.956;2023-10-09T06:22:17;12.38;;;7.00;;
20154;SDS011;10238;49.556;10.956;2023-10-09T06:25:21;7.97;;;5.75;;
20154;SDS011;10238;49.556;10.956;2023-10-09T06:28:19;14.48;;;8.10;;
20154;SDS011;10238;49.556;10.956;2023-10-09T06:31:20;13.88;;;8.13;;
20154;SDS011;10238;49.556;10.956;2023-10-09T06:34:35;11.30;;;6.38;;
20154;SDS011;10238;49.556;10.956;2023-10-09T06:37:30;16.45;;;6.90;;
20154;SDS011;10238;49.556;10.956;2023-10-09T06:40:46;11.35;;;7.07;;
20154;SDS011;10238;49.556;10.956;2023-10-09T06:43:52;12.10;;;7.90;;
20154;SDS011;10238;49.556;10.956;2023-10-09T06:46:41;9.85;;;7.32;;
20154;SDS011;10238;49.556;10.956;2023-10-09T06:49:38;12.70;;;7.28;;
20154;SDS011;10238;49.556;10.956;2023-10-09T06:52:45;13.38;;;7.97;;
20154;SDS011;10238;49.556;10.956;2023-10-09T06:56:11;11.25;;;7.20;;
20154;SDS011;10238;49.556;10.956;2023-10-09T06:59:09;12.57;;;7.43;;
20154;SDS011;10238;49.556;10.956;2023-10-09T07:02:04;10.48;;;7.80;;
20154;SDS011;10238;49.556;10.956;2023-10-09T07:05:21;11.63;;;6.90;;
20154;SDS011;10238;49.556;10.956;2023-10-09T07:08:17;10.70;;;6.80;;
20154;SDS011;10238;49.556;10.956;2023-10-09T07:11:17;13.55;;;6.40;;
20154;SDS011;10238;49.556;10.956;2023-10-09T07:14:28;12.43;;;6.63;;
20154;SDS011;10238;49.556;10.956;2023-10-09T07:17:48;10.57;;;6.30;;
20154;SDS011;10238;49.556;10.956;2023-10-09T07:20:38;12.77;;;7.05;;
20154;SDS011;10238;49.556;10.956;2023-10-09T07:23:31;14.07;;;6.82;;
20154;SDS011;10238;49.556;10.956;2023-10-09T07:26:19;10.88;;;7.05;;
20154;SDS011;10238;49.556;10.956;2023-10-09T07:29:22;14.77;;;7.50;;
20154;SDS011;10238;49.556;10.956;2023-10-09T07:32:10;13.15;;;8.02;;
20154;SDS011;10238;49.556;10.956;2023-10-09T07:35:07;16.10;;;8.15;;
20154;SDS011;10238;49.556;10.956;2023-10-09T07:38:11;13.82;;;7.97;;
20154;SDS011;10238;49.556;10.956;2023-10-09T07:41:04;11.65;;;7.93;;
20154;SDS011;10238;49.556;10.956;2023-10-09T07:44:06;14.52;;;8.27;;
20154;SDS011;10238;49.556;10.956;2023-10-09T07:47:19;17.35;;;8.15;;
20154;SDS011;10238;49.556;10.956;2023-10-09T07:50:20;15.13;;;7.65;;
20154;SDS011;10238;49.556;10.956;2023-10-09T07:53:08;17.90;;;8.18;;
20154;SDS011;10238;49.556;10.956;2023-10-09T07:56:03;15.40;;;7.60;;
20154;SDS011;10238;49.556;10.956;2023-10-09T07:58:52;16.05;;;7.40;;
20154;SDS011;10238;49.556;10.956;2023-10-09T08:04:39;14.85;;;8.00;;
20154;SDS011;10238;49.556;10.956;2023-10-09T08:07:36;15.20;;;7.20;;
20154;SDS011;10238;49.556;10.956;2023-10-09T08:10:46;16.15;;;7.85;;
20154;SDS011;10238;49.556;10.956;2023-10-09T08:13:51;14.93;;;6.95;;
20154;SDS011;10238;49.556;10.956;2023-10-09T08:16:46;14.80;;;7.80;;
20154;SDS011;10238;49.556;10.956;2023-10-09T08:19:33;13.68;;;6.68;;
20154;SDS011;10238;49.556;10.956;2023-10-09T08:22:38;14.40;;;7.05;;
20154;SDS011;10238;49.556;10.956;2023-10-09T08:25:38;17.65;;;7.68;;
20154;SDS011;10238;49.556;10.956;2023-10-09T08:28:43;14.15;;;7.50;;
20154;SDS011;10238;49.556;10.956;2023-10-09T08:31:31;13.73;;;7.43;;
20154;SDS011;10238;49.556;10.956;2023-10-09T08:34:31;16.17;;;7.47;;
20154;SDS011;10238;49.556;10.956;2023-10-09T08:37:37;18.70;;;8.40;;
20154;SDS011;10238;49.556;10.956;2023-10-09T08:40:33;14.43;;;8.43;;
20154;SDS011;10238;49.556;10.956;2023-10-09T08:43:25;15.30;;;6.75;;
20154;SDS011;10238;49.556;10.956;2023-10-09T08:46:20;14.47;;;7.03;;
20154;SDS011;10238;49.556;10.956;2023-10-09T08:49:12;15.98;;;7.55;;
20154;SDS011;10238;49.556;10.956;2023-10-09T08:52:01;13.05;;;6.93;;
20154;SDS011;10238;49.556;10.956;2023-10-09T08:54:51;15.57;;;7.65;;
20154;SDS011;10238;49.556;10.956;2023-10-09T08:57:39;15.25;;;7.75;;
20154;SDS011;10238;49.556;10.956;2023-10-09T09:00:27;15.98;;;7.65;;
20154;SDS011;10238;49.556;10.956;2023-10-09T09:03:19;15.98;;;7.10;;
20154;SDS011;10238;49.556;10.956;2023-10-09T09:06:08;18.13;;;6.80;;
20154;SDS011;10238;49.556;10.956;2023-10-09T09:09:00;16.17;;;7.68;;
20154;SDS011;10238;49.556;10.956;2023-10-09T09:12:01;12.40;;;6.25;;
20154;SDS011;10238;49.556;10.956;2023-10-09T09:14:54;15.52;;;6.45;;
20154;SDS011;10238;49.556;10.956;2023-10-09T09:17:43;13.93;;;6.90;;
20154;SDS011;10238;49.556;10.956;2023-10-09T09:20:31;16.63;;;7.18;;
20154;SDS011;10238;49.556;10.956;2023-10-09T09:23:22;13.95;;;6.53;;
20154;SDS011;10238;49.556;10.956;2023-10-09T09:26:12;15.90;;;6.93;;
20154;SDS011;10238;49.556;10.956;2023-10-09T09:29:06;11.50;;;5.95;;
20154;SDS011;10238;49.556;10.956;2023-10-09T09:31:55;15.07;;;6.47;;
20154;SDS011;10238;49.556;10.956;2023-10-09T09:34:52;13.20;;;5.97;;
20154;SDS011;10238;49.556;10.956;2023-10-09T09:37:42;14.88;;;6.40;;
20154;SDS011;10238;49.556;10.956;2023-10-09T09:40:41;15.93;;;6.45;;
20154;SDS011;10238;49.556;10.956;2023-10-09T09:43:29;9.48;;;5.90;;
20154;SDS011;10238;49.556;10.956;2023-10-09T09:49:21;13.90;;;6.45;;
20154;SDS011;10238;49.556;10.956;2023-10-09T09:52:09;15.18;;;6.90;;
20154;SDS011;10238;49.556;10.956;2023-10-09T09:54:57;12.27;;;6.93;;
20154;SDS011;10238;49.556;10.956;2023-10-09T09:57:47;19.55;;;6.85;;
20154;SDS011;10238;49.556;10.956;2023-10-09T10:00:38;16.10;;;7.47;;
20154;SDS011;10238;49.556;10.956;2023-10-09T10:03:31;12.38;;;6.55;;
20154;SDS011;10238;49.556;10.956;2023-10-09T10:06:25;16.27;;;7.20;;
20154;SDS011;10238;49.556;10.956;2023-10-09T10:19:02;13.02;;;6.97;;
20154;SDS011;10238;49.556;10.956;2023-10-09T10:22:23;14.00;;;6.80;;
20154;SDS011;10238;49.556;10.956;2023-10-09T10:28:22;19.75;;;8.48;;
20154;SDS011;10238;49.556;10.956;2023-10-09T10:31:37;15.93;;;7.35;;
20154;SDS011;10238;49.556;10.956;2023-10-09T10:34:53;14.85;;;6.68;;
20154;SDS011;10238;49.556;10.956;2023-10-09T10:37:45;13.30;;;7.13;;
20154;SDS011;10238;49.556;10.956;2023-10-09T10:40:36;14.50;;;6.82;;
20154;SDS011;10238;49.556;10.956;2023-10-09T10:43:32;16.30;;;6.90;;
20154;SDS011;10238;49.556;10.956;2023-10-09T10:46:33;15.85;;;6.43;;
20154;SDS011;10238;49.556;10.956;2023-10-09T10:49:30;12.55;;;6.53;;
20154;SDS011;10238;49.556;10.956;2023-10-09T10:55:28;14.73;;;6.35;;
20154;SDS011;10238;49.556;10.956;2023-10-09T10:58:38;12.43;;;5.47;;
20154;SDS011;10238;49.556;10.956;2023-10-09T11:01:34;16.17;;;5.65;;
20154;SDS011;10238;49.556;10.956;2023-10-09T11:04:39;18.50;;;6.05;;
20154;SDS011;10238;49.556;10.956;2023-10-09T11:07:31;15.93;;;5.57;;
20154;SDS011;10238;49.556;10.956;2023-10-09T11:10:21;11.70;;;5.28;;
20154;SDS011;10238;49.556;10.956;2023-10-09T11:13:20;10.32;;;5.35;;
20154;SDS011;10238;49.556;10.956;2023-10-09T11:19:28;8.82;;;4.20;;
20154;SDS011;10238;49.556;10.956;2023-10-09T11:22:17;11.63;;;3.95;;
20154;SDS011;10238;49.556;10.956;2023-10-09T11:25:15;13.55;;;4.82;;
20154;SDS011;10238;49.556;10.956;2023-10-09T11:28:15;17.10;;;4.70;;
20154;SDS011;10238;49.556;10.956;2023-10-09T11:31:28;15.48;;;4.57;;
20154;SDS011;10238;49.556;10.956;2023-10-09T11:34:19;11.27;;;5.07;;
20154;SDS011;10238;49.556;10.956;2023-10-09T11:37:15;13.02;;;4.63;;
20154;SDS011;10238;49.556;10.956;2023-10-09T11:43:50;14.05;;;4.72;;
20154;SDS011;10238;49.556;10.956;2023-10-09T11:46:40;12.05;;;4.90;;
20154;SDS011;10238;49.556;10.956;2023-10-09T11:50:00;18.17;;;5.97;;
20154;SDS011;10238;49.556;10.956;2023-10-09T11:53:02;13.63;;;4.03;;
20154;SDS011;10238;49.556;10.956;2023-10-09T11:55:57;16.45;;;4.22;;
20154;SDS011;10238;49.556;10.956;2023-10-09T11:58:46;10.00;;;4.40;;
20154;SDS011;10238;49.556;10.956;2023-10-09T12:01:36;11.25;;;4.40;;
20154;SDS011;10238;49.556;10.956;2023-10-09T12:04:28;10.80;;;4.22;;
20154;SDS011;10238;49.556;10.956;2023-10-09T12:07:17;11.85;;;4.32;;
20154;SDS011;10238;49.556;10.956;2023-10-09T12:10:06;12.85;;;3.92;;
20154;SDS011;10238;49.556;10.956;2023-10-09T12:12:57;11.43;;;4.05;;
20154;SDS011;10238;49.556;10.956;2023-10-09T12:15:45;13.70;;;4.20;;
20154;SDS011;10238;49.556;10.956;2023-10-09T12:18:32;17.48;;;4.43;;
20154;SDS011;10238;49.556;10.956;2023-10-09T12:21:20;10.85;;;4.70;;
20154;SDS011;10238;49.556;10.956;2023-10-09T12:24:09;10.25;;;4.22;;
20154;SDS011;10238;49.556;10.956;2023-10-09T12:26:57;13.23;;;4.00;;
20154;SDS011;10238;49.556;10.956;2023-10-09T12:29:47;8.73;;;4.25;;
20154;SDS011;10238;49.556;10.956;2023-10-09T12:32:35;8.95;;;4.00;;
20154;SDS011;10238;49.556;10.956;2023-10-09T12:35:23;9.93;;;4.15;;
20154;SDS011;10238;49.556;10.956;2023-10-09T12:38:11;14.05;;;4.57;;
20154;SDS011;10238;49.556;10.956;2023-10-09T12:41:04;25.23;;;5.10;;
20154;SDS011;10238;49.556;10.956;2023-10-09T12:44:03;15.93;;;4.97;;
20154;SDS011;10238;49.556;10.956;2023-10-09T12:46:59;14.43;;;4.53;;
20154;SDS011;10238;49.556;10.956;2023-10-09T12:49:50;14.98;;;3.97;;
20154;SDS011;10238;49.556;10.956;2023-10-09T12:52:40;12.27;;;5.22;;
20154;SDS011;10238;49.556;10.956;2023-10-09T12:55:28;12.90;;;4.85;;
20154;SDS011;10238;49.556;10.956;2023-10-09T12:58:18;14.00;;;5.22;;
20154;SDS011;10238;49.556;10.956;2023-10-09T13:01:06;16.13;;;4.70;;
20154;SDS011;10238;49.556;10.956;2023-10-09T13:03:58;11.55;;;4.78;;
20154;SDS011;10238;49.556;10.956;2023-10-09T13:06:46;11.63;;;4.53;;
20154;SDS011;10238;49.556;10.956;2023-10-09T13:09:37;14.43;;;5.00;;
20154;SDS011;10238;49.556;10.956;2023-10-09T13:12:29;10.05;;;4.28;;
20154;SDS011;10238;49.556;10.956;2023-10-09T13:15:17;14.52;;;4.75;;
20154;SDS011;10238;49.556;10.956;2023-10-09T13:18:06;11.65;;;4.70;;
20154;SDS011;10238;49.556;10.956;2023-10-09T13:20:55;15.18;;;6.22;;
20154;SDS011;10238;49.556;10.956;2023-10-09T13:23:43;16.48;;;5.25;;
20154;SDS011;10238;49.556;10.956;2023-10-09T13:26:33;14.35;;;4.07;;
20154;SDS011;10238;49.556;10.956;2023-10-09T13:29:22;12.32;;;4.40;;
20154;SDS011;10238;49.556;10.956;2023-10-09T13:32:10;12.77;;;5.30;;
20154;SDS011;10238;49.556;10.956;2023-10-09T13:35:00;11.90;;;4.95;;
20154;SDS011;10238;49.556;10.956;2023-10-09T13:37:52;12.43;;;5.07;;
20154;SDS011;10238;49.556;10.956;2023-10-09T13:40:40;9.52;;;4.22;;
20154;SDS011;10238;49.556;10.956;2023-10-09T13:43:28;14.48;;;5.03;;
20154;SDS011;10238;49.556;10.956;2023-10-09T13:46:15;9.15;;;4.20;;
20154;SDS011;10238;49.556;10.956;2023-10-09T13:49:03;12.40;;;5.35;;
20154;SDS011;10238;49.556;10.956;2023-10-09T13:51:55;7.70;;;5.63;;
20154;SDS011;10238;49.556;10.956;2023-10-09T13:54:45;11.88;;;4.78;;
20154;SDS011;10238;49.556;10.956;2023-10-09T13:57:35;13.27;;;4.10;;
20154;SDS011;10238;49.556;10.956;2023-10-09T14:00:23;12.13;;;4.07;;
20154;SDS011;10238;49.556;10.956;2023-10-09T14:03:19;11.73;;;3.88;;
20154;SDS011;10238;49.556;10.956;2023-10-09T14:06:10;13.18;;;4.50;;
20154;SDS011;10238;49.556;10.956;2023-10-09T14:08:58;12.68;;;3.75;;
20154;SDS011;10238;49.556;10.956;2023-10-09T14:11:51;10.82;;;4.50;;
20154;SDS011;10238;49.556;10.956;2023-10-09T14:14:40;12.90;;;4.43;;
20154;SDS011;10238;49.556;10.956;2023-10-09T14:17:33;8.35;;;3.75;;
20154;SDS011;10238;49.556;10.956;2023-10-09T14:20:21;12.07;;;4.00;;
20154;SDS011;10238;49.556;10.956;2023-10-09T14:23:17;12.18;;;4.32;;
20154;SDS011;10238;49.556;10.956;2023-10-09T14:26:07;7.65;;;4.05;;
20154;SDS011;10238;49.556;10.956;2023-10-09T14:28:56;12.07;;;4.47;;
20154;SDS011;10238;49.556;10.956;2023-10-09T14:31:43;12.48;;;4.65;;
20154;SDS011;10238;49.556;10.956;2023-10-09T14:34:45;11.18;;;4.28;;
20154;SDS011;10238;49.556;10.956;2023-10-09T14:37:36;14.20;;;5.38;;
20154;SDS011;10238;49.556;10.956;2023-10-09T14:40:25;10.73;;;3.92;;
20154;SDS011;10238;49.556;10.956;2023-10-09T14:43:17;10.65;;;4.10;;
20154;SDS011;10238;49.556;10.956;2023-10-09T14:46:15;12.02;;;4.20;;
20154;SDS011;10238;49.556;10.956;2023-10-09T14:49:08;7.78;;;3.80;;
20154;SDS011;10238;49.556;10.956;2023-10-09T14:52:00;12.93;;;4.38;;
20154;SDS011;10238;49.556;10.956;2023-10-09T14:54:48;11.77;;;3.78;;
20154;SDS011;10238;49.556;10.956;2023-10-09T14:57:36;8.13;;;4.05;;
20154;SDS011;10238;49.556;10.956;2023-10-09T15:00:24;8.63;;;4.78;;
20154;SDS011;10238;49.556;10.956;2023-10-09T15:03:14;15.70;;;4.55;;
20154;SDS011;10238;49.556;10.956;2023-10-09T15:06:05;10.27;;;3.80;;
20154;SDS011;10238;49.556;10.956;2023-10-09T15:08:56;10.23;;;5.03;;
20154;SDS011;10238;49.556;10.956;2023-10-09T15:11:46;10.75;;;4.82;;
20154;SDS011;10238;49.556;10.956;2023-10-09T15:14:34;15.23;;;5.30;;
20154;SDS011;10238;49.556;10.956;2023-10-09T15:17:22;9.75;;;4.30;;
20154;SDS011;10238;49.556;10.956;2023-10-09T15:20:13;11.90;;;4.30;;
20154;SDS011;10238;49.556;10.956;2023-10-09T15:23:03;8.55;;;4.53;;
20154;SDS011;10238;49.556;10.956;2023-10-09T15:25:51;12.98;;;4.97;;
20154;SDS011;10238;49.556;10.956;2023-10-09T15:28:39;8.93;;;4.15;;
20154;SDS011;10238;49.556;10.956;2023-10-09T15:31:27;14.20;;;4.78;;
20154;SDS011;10238;49.556;10.956;2023-10-09T15:34:16;9.55;;;4.95;;
20154;SDS011;10238;49.556;10.956;2023-10-09T15:37:07;9.32;;;4.25;;
20154;SDS011;10238;49.556;10.956;2023-10-09T15:39:54;11.00;;;4.22;;
20154;SDS011;10238;49.556;10.956;2023-10-09T15:42:43;11.18;;;5.22;;
20154;SDS011;10238;49.556;10.956;2023-10-09T15:45:35;12.25;;;4.60;;
20154;SDS011;10238;49.556;10.956;2023-10-09T15:48:30;9.43;;;4.90;;
20154;SDS011;10238;49.556;10.956;2023-10-09T15:51:19;9.88;;;4.80;;
20154;SDS011;10238;49.556;10.956;2023-10-09T15:54:09;14.77;;;6.18;;
20154;SDS011;10238;49.556;10.956;2023-10-09T15:56:58;14.77;;;6.97;;
20154;SDS011;10238;49.556;10.956;2023-10-09T15:59:58;13.10;;;6.35;;
20154;SDS011;10238;49.556;10.956;2023-10-09T16:02:47;10.25;;;4.93;;
20154;SDS011;10238;49.556;10.956;2023-10-09T16:05:39;12.30;;;6.50;;
20154;SDS011;10238;49.556;10.956;2023-10-09T16:08:27;12.65;;;6.32;;
20154;SDS011;10238;49.556;10.956;2023-10-09T16:11:19;12.85;;;6.85;;
20154;SDS011;10238;49.556;10.956;2023-10-09T16:14:09;13.02;;;6.05;;
20154;SDS011;10238;49.556;10.956;2023-10-09T16:16:56;12.00;;;6.63;;
20154;SDS011;10238;49.556;10.956;2023-10-09T16:19:44;13.07;;;5.47;;
20154;SDS011;10238;49.556;10.956;2023-10-09T16:22:31;14.48;;;6.00;;
20154;SDS011;10238;49.556;10.956;2023-10-09T16:25:19;13.18;;;6.07;;
20154;SDS011;10238;49.556;10.956;2023-10-09T16:28:11;10.73;;;5.55;;
20154;SDS011;10238;49.556;10.956;2023-10-09T16:31:01;10.77;;;5.47;;
20154;SDS011;10238;49.556;10.956;2023-10-09T16:33:52;10.07;;;5.25;;
20154;SDS011;10238;49.556;10.956;2023-10-09T16:36:40;12.15;;;5.45;;
20154;SDS011;10238;49.556;10.956;2023-10-09T16:39:28;10.20;;;4.35;;
20154;SDS011;10238;49.556;10.956;2023-10-09T16:42:24;10.57;;;5.15;;
20154;SDS011;10238;49.556;10.956;2023-10-09T16:45:13;12.02;;;4.93;;
20154;SDS011;10238;49.556;10.956;2023-10-09T16:48:02;11.05;;;5.13;;
20154;SDS011;10238;49.556;10.956;2023-10-09T16:50:55;11.85;;;5.07;;
20154;SDS011;10238;49.556;10.956;2023-10-09T16:53:53;10.90;;;5.45;;
20154;SDS011;10238;49.556;10.956;2023-10-09T16:56:41;12.52;;;5.72;;
20154;SDS011;10238;49.556;10.956;2023-10-09T16:59:30;10.75;;;4.85;;
20154;SDS011;10238;49.556;10.956;2023-10-09T17:02:20;12.52;;;4.47;;
20154;SDS011;10238;49.556;10.956;2023-10-09T17:05:09;11.02;;;4.38;;
20154;SDS011;10238;49.556;10.956;2023-10-09T17:07:58;12.85;;;5.28;;
20154;SDS011;10238;49.556;10.956;2023-10-09T17:10:46;7.50;;;4.18;;
20154;SDS011;10238;49.556;10.956;2023-10-09T17:13:37;15.32;;;4.85;;
20154;SDS011;10238;49.556;10.956;2023-10-09T17:16:30;10.48;;;4.75;;
20154;SDS011;10238;49.556;10.956;2023-10-09T17:19:20;12.10;;;6.03;;
20154;SDS011;10238;49.556;10.956;2023-10-09T17:22:09;10.82;;;4.80;;
20154;SDS011;10238;49.556;10.956;2023-10-09T17:24:57;15.15;;;5.60;;
20154;SDS011;10238;49.556;10.956;2023-10-09T17:27:45;11.27;;;5.30;;
20154;SDS011;10238;49.556;10.956;2023-10-09T17:30:32;12.20;;;4.75;;